< Typhoon 201613 2016 Season Typhoon 201615 >
Typhoon 201614 (MERANTI)
General InformationTrack Information on Google MapsDetailed Wind InformationForecast History on Google MapsAccess Analytics MapList of All Images || NewsDisaster Info.WeblogTrackbackTyphoon FrontTwiphoonTyphoon Now!Typhoon ImaginationDisaster Info. XMLResourceGoogle EarthGE AnimationAtom FeedGeoJSON
Detalied Best Track (Time Zone = UTC)
Year Month Day Hour Lat. Long. Pressure (hPa) Wind (kt) Class Image Chart
2016 9 9 12 13.7 141.7 1004 0 2 Image Chart
2016 9 9 18 14.0 141.2 1004 0 2 Image Chart
2016 9 10 00 14.4 140.2 1004 0 2 Image Chart
2016 9 10 06 14.8 139.2 1000 35 3 Image Chart
2016 9 10 12 15.3 137.9 998 35 3 Image Chart
2016 9 10 18 16.0 136.9 990 45 3 Image Chart
2016 9 11 00 16.4 135.7 980 55 4 Image Chart
2016 9 11 06 16.7 134.5 970 65 5 Image Chart
2016 9 11 12 17.4 133.2 950 80 5 Image Chart
2016 9 11 18 17.6 131.7 940 85 5 Image Chart
2016 9 12 00 18.0 130.4 930 95 5 Image Chart
2016 9 12 06 18.3 129.4 920 100 5 Image Chart
2016 9 12 12 18.9 128.2 910 105 5 Image Chart
2016 9 12 18 19.3 126.7 910 105 5 Image Chart
2016 9 13 00 19.6 125.5 900 115 5 Image Chart
2016 9 13 06 20.2 124.1 900 115 5 Image Chart
2016 9 13 12 20.4 122.9 890 120 5 Image Chart
2016 9 13 18 20.9 121.8 900 115 5 Image Chart
2016 9 14 00 21.6 120.8 910 105 5 Image Chart
2016 9 14 06 22.5 119.8 930 90 5 Image Chart
2016 9 14 12 23.5 118.9 940 85 5 Image Chart
2016 9 14 18 24.4 118.3 965 70 5 Image Chart
2016 9 15 00 25.2 117.7 980 55 4 Image Chart
2016 9 15 06 26.1 116.9 996 45 3 Image Chart
2016 9 15 12 27.0 117.1 1002 0 2 Image Chart
2016 9 15 18 28.1 117.5 1004 0 2 Image Chart
2016 9 16 00 30.2 118.9 1004 0 2 Image Chart
2016 9 16 06 31.6 120.1 1004 0 6 Image Chart
2016 9 16 12 32.7 121.5 1004 0 6 Image Chart
2016 9 16 18 33.7 123.4 1004 0 6 Image Chart
2016 9 17 00 33.5 123.8 1004 0 6 Image Chart
2016 9 17 06 33.3 124.4 1004 0 6 Image Chart
2016 9 17 12 33.2 125.2 1006 0 6 Image Chart
Japan Meteorological Agency Best Track Data | Correction Date : 2016-10-21
< Typhoon 201613 2016 Season Typhoon 201615 >

Help